Time;durP1;ratioP1;P1;durP2;ratioP2;P2;SDS_P1;SDS_P2;PMS_P1;PMS_P2;Temp;Humidity;BMP_temperature;BMP_pressure;BME280_temperature;BME280_humidity;BME280_pressure;Samples;Min_cycle;Max_cycle;Signal;HPM_P1;HPM_P2
2022/12/24 00:00:34;;;;;;;;;;;;;;;11.19;100.00;99329.09;4900842;29;19947;-87
2022/12/24 00:03:01;;;;;;;;;;;;;;;11.19;100.00;99329.09;4872904;29;19935;-89
2022/12/24 00:05:28;;;;;;;;;;;;;;;11.19;100.00;99328.25;4883551;29;19993;-88
2022/12/24 00:07:54;;;;;;;;;;;;;;;11.20;100.00;99314.00;4871914;29;21411;-87
2022/12/24 00:10:21;;;;;;;;;;;;;;;11.19;100.00;99320.28;4902462;29;20002;-88
2022/12/24 00:12:47;;;;;;;;;;;;;;;11.19;100.00;99320.28;4915721;29;19935;-87
2022/12/24 00:15:14;;;;;;;;;;;;;;;11.19;100.00;99320.28;4887492;29;20010;-88
2022/12/24 00:17:41;;;;;;;;;;;;;;;11.19;100.00;99320.28;4887152;29;19930;-87
2022/12/24 00:20:07;;;;;;;;;;;;;;;11.17;100.00;99322.25;4881822;29;19923;-87
2022/12/24 00:22:34;;;;;;;;;;;;;;;11.15;100.00;99322.44;4886391;29;20419;-87
2022/12/24 00:25:01;;;;;;;;;;;;;;;11.12;100.00;99330.72;4871903;29;20006;-87
2022/12/24 00:27:28;;;;;;;;;;;;;;;11.09;100.00;99331.00;4858303;29;19934;-87
2022/12/24 00:29:54;;;;;;;;;;;;;;;11.06;100.00;99339.28;4867717;29;19986;-87
2022/12/24 00:32:21;;;;;;;;;;;;;;;11.00;100.00;99335.41;4884851;29;19930;-87
2022/12/24 00:34:47;;;;;;;;;;;;;;;11.06;100.00;99334.78;4887593;29;19931;-87
2022/12/24 00:37:14;;;;;;;;;;;;;;;11.04;100.00;99338.59;4902641;29;20350;-87
2022/12/24 00:39:41;;;;;;;;;;;;;;;11.01;100.00;99339.72;4885177;29;20389;-87
2022/12/24 00:42:07;;;;;;;;;;;;;;;11.02;100.00;99351.22;4871744;29;20375;-88
2022/12/24 00:44:34;;;;;;;;;;;;;;;11.03;100.00;99353.69;4871431;29;20279;-87
2022/12/24 00:47:00;;;;;;;;;;;;;;;11.03;100.00;99352.88;4898426;29;19938;-87
2022/12/24 00:49:33;;;;;;;;;;;;;;;11.02;100.00;99357.34;4884580;29;19929;-87
2022/12/24 00:52:01;;;;;;;;;;;;;;;10.96;100.00;99349.97;4870993;29;19935;-86
2022/12/24 00:54:28;;;;;;;;;;;;;;;11.02;100.00;99359.19;4884882;29;19978;-87
2022/12/24 00:56:55;;;;;;;;;;;;;;;11.01;100.00;99360.97;4883154;29;19927;-87
2022/12/24 00:59:22;;;;;;;;;;;;;;;11.00;100.00;99361.13;4916325;28;19923;-87
2022/12/24 01:01:48;;;;;;;;;;;;;;;10.97;100.00;99367.59;4886824;29;19931;-88
2022/12/24 01:07:00;;;;;;;;;;;;;;;10.97;100.00;99388.84;4887587;29;19982;-87
2022/12/24 01:09:28;;;;;;;;;;;;;;;10.99;100.00;99389.53;4870701;29;20041;-87
2022/12/24 01:11:54;;;;;;;;;;;;;;;11.01;100.00;99384.88;4885602;29;20021;-87
2022/12/24 01:14:21;;;;;;;;;;;;;;;10.98;100.00;99381.69;4917405;29;20033;-86
2022/12/24 01:16:47;;;;;;;;;;;;;;;11.02;100.00;99393.72;4884952;29;19959;-87
2022/12/24 01:19:14;;;;;;;;;;;;;;;11.02;100.00;99391.06;4871426;29;19923;-85
2022/12/24 01:21:41;;;;;;;;;;;;;;;11.01;100.00;99411.44;4899507;29;19930;-87
2022/12/24 01:24:10;;;;;;;;;;;;;;;10.97;100.00;99410.09;4872034;29;19927;-87
2022/12/24 01:26:37;;;;;;;;;;;;;;;10.95;100.00;99414.72;4871738;29;19923;-86
2022/12/24 01:29:03;;;;;;;;;;;;;;;10.92;100.00;99416.84;4884352;29;19923;-86
2022/12/24 01:31:30;;;;;;;;;;;;;;;10.94;100.00;99417.50;4883992;29;19955;-87
2022/12/24 01:33:57;;;;;;;;;;;;;;;10.98;100.00;99432.19;4883260;29;19923;-87
2022/12/24 01:36:23;;;;;;;;;;;;;;;11.00;100.00;99438.19;4869210;29;20891;-87
2022/12/24 01:38:50;;;;;;;;;;;;;;;10.97;100.00;99441.97;4896462;29;19927;-86
2022/12/24 01:44:18;;;;;;;;;;;;;;;10.89;100.00;99454.31;4862300;29;19923;-87
2022/12/24 01:46:45;;;;;;;;;;;;;;;10.86;100.00;99455.44;4886310;29;19923;-86
2022/12/24 01:49:13;;;;;;;;;;;;;;;10.81;100.00;99463.88;4898519;29;20361;-86
2022/12/24 01:51:41;;;;;;;;;;;;;;;10.86;100.00;99464.25;4868631;29;19931;-87
2022/12/24 01:54:08;;;;;;;;;;;;;;;10.76;100.00;99470.56;4887663;29;19931;-86
2022/12/24 01:56:35;;;;;;;;;;;;;;;10.73;100.00;99468.22;4902020;29;19939;-87
2022/12/24 01:59:05;;;;;;;;;;;;;;;10.74;100.00;99475.22;4912168;29;20382;-87
2022/12/24 02:01:32;;;;;;;;;;;;;;;10.76;100.00;99482.06;4858077;29;19923;-88
2022/12/24 02:04:00;;;;;;;;;;;;;;;10.74;100.00;99485.84;4895652;29;19938;-88
2022/12/24 02:06:26;;;;;;;;;;;;;;;10.68;100.00;99500.50;4889866;29;20302;-87
2022/12/24 02:08:53;;;;;;;;;;;;;;;10.63;100.00;99479.72;4887080;29;20043;-88
2022/12/24 02:11:21;;;;;;;;;;;;;;;10.65;100.00;99480.41;4872799;29;19935;-87
2022/12/24 02:13:54;;;;;;;;;;;;;;;10.72;100.00;99495.78;4906082;29;19982;-87
2022/12/24 02:16:27;;;;;;;;;;;;;;;10.72;100.00;99496.59;4882579;29;20390;-88
2022/12/24 02:18:54;;;;;;;;;;;;;;;10.64;100.00;99499.97;4882299;29;19922;-88
2022/12/24 02:21:20;;;;;;;;;;;;;;;10.55;99.82;99497.34;4889423;29;20398;-88
2022/12/24 02:24:06;;;;;;;;;;;;;;;10.60;99.96;99501.22;4901227;29;19923;-88
2022/12/24 02:26:51;;;;;;;;;;;;;;;10.52;100.00;99500.28;4885957;29;19956;-87
2022/12/24 02:29:37;;;;;;;;;;;;;;;10.48;100.00;99498.91;4850878;29;20010;-87
2022/12/24 02:32:04;;;;;;;;;;;;;;;10.41;99.78;99496.81;4873734;29;19923;-87
2022/12/24 02:34:38;;;;;;;;;;;;;;;10.41;99.45;99494.16;4874098;29;20013;-87
2022/12/24 02:37:14;;;;;;;;;;;;;;;10.32;98.45;99504.78;4870221;29;19927;-89
2022/12/24 02:39:57;;;;;;;;;;;;;;;10.28;99.52;99500.75;4887174;29;20355;-88
2022/12/24 02:42:25;;;;;;;;;;;;;;;10.34;98.68;99508.97;4866999;29;19931;-87
2022/12/24 02:44:54;;;;;;;;;;;;;;;10.32;97.91;99507.44;4885240;29;21227;-86
2022/12/24 02:47:21;;;;;;;;;;;;;;;10.36;99.25;99514.16;4871979;29;19930;-87
2022/12/24 02:49:47;;;;;;;;;;;;;;;10.31;98.67;99511.09;4871541;29;20030;-86
2022/12/24 02:52:26;;;;;;;;;;;;;;;10.27;99.60;99514.97;4917663;29;19923;-86
2022/12/24 02:54:53;;;;;;;;;;;;;;;10.20;98.92;99509.38;4906632;29;19927;-85
2022/12/24 02:57:27;;;;;;;;;;;;;;;10.18;98.40;99508.72;4918512;28;20014;-85
2022/12/24 03:00:02;;;;;;;;;;;;;;;10.26;98.04;99522.09;4915357;28;19934;-85
2022/12/24 03:02:33;;;;;;;;;;;;;;;10.20;97.65;99525.31;4865950;29;19923;-84
2022/12/24 03:05:19;;;;;;;;;;;;;;;10.08;97.21;99524.63;4905204;28;19974;-85
2022/12/24 03:08:04;;;;;;;;;;;;;;;10.07;97.32;99532.72;4892008;29;20696;-84
2022/12/24 03:10:34;;;;;;;;;;;;;;;10.02;97.69;99538.44;4895264;29;20002;-84
2022/12/24 03:13:05;;;;;;;;;;;;;;;10.02;97.51;99540.25;4903433;29;20331;-84
2022/12/24 03:15:32;;;;;;;;;;;;;;;9.96;97.16;99539.84;4909215;29;19994;-84
2022/12/24 03:17:59;;;;;;;;;;;;;;;9.90;97.48;99545.72;4887886;29;20323;-84
2022/12/24 03:20:29;;;;;;;;;;;;;;;9.92;97.28;99551.72;4901708;29;20033;-84
2022/12/24 03:22:56;;;;;;;;;;;;;;;9.92;96.84;99541.09;4873612;29;19930;-84
2022/12/24 03:25:23;;;;;;;;;;;;;;;9.93;96.88;99541.94;4872280;29;19923;-85
2022/12/24 03:27:49;;;;;;;;;;;;;;;9.90;96.64;99550.19;4871159;29;21131;-85
2022/12/24 03:30:17;;;;;;;;;;;;;;;9.92;96.66;99549.06;4909795;29;20010;-84
2022/12/24 03:32:44;;;;;;;;;;;;;;;10.05;96.65;99562.06;4902918;29;19927;-85
2022/12/24 03:35:10;;;;;;;;;;;;;;;10.02;96.72;99566.78;4893188;29;19930;-84
2022/12/24 03:37:37;;;;;;;;;;;;;;;9.93;96.57;99563.16;4901704;29;20267;-85
2022/12/24 03:40:04;;;;;;;;;;;;;;;9.89;96.12;99564.41;4870734;29;19923;-84
2022/12/24 03:42:30;;;;;;;;;;;;;;;9.87;96.90;99576.94;4872989;29;20342;-85
2022/12/24 03:44:57;;;;;;;;;;;;;;;9.86;96.50;99591.19;4871593;29;19931;-84
2022/12/24 03:47:23;;;;;;;;;;;;;;;9.83;96.95;99605.56;4884693;29;19993;-84
2022/12/24 03:49:50;;;;;;;;;;;;;;;9.82;96.76;99595.09;4886502;29;19924;-85
2022/12/24 03:52:17;;;;;;;;;;;;;;;9.87;97.41;99584.91;4888063;29;19927;-84
2022/12/24 03:54:43;;;;;;;;;;;;;;;9.81;97.04;99591.59;4844332;29;19932;-85
2022/12/24 03:57:10;;;;;;;;;;;;;;;9.87;97.61;99590.22;4827761;29;19988;-85
2022/12/24 03:59:36;;;;;;;;;;;;;;;9.79;97.82;99593.53;4790204;29;19923;-84
2022/12/24 04:02:03;;;;;;;;;;;;;;;9.82;98.08;99592.44;4823267;29;19931;-84
2022/12/24 04:04:32;;;;;;;;;;;;;;;9.83;98.29;99591.47;4832011;29;19924;-85
2022/12/24 04:06:59;;;;;;;;;;;;;;;9.81;98.41;99594.25;4818674;29;20315;-85
2022/12/24 04:09:25;;;;;;;;;;;;;;;9.86;98.52;99607.94;4817584;29;19931;-84
2022/12/24 04:11:51;;;;;;;;;;;;;;;9.86;98.51;99607.94;4817200;29;19980;-85
2022/12/24 04:14:18;;;;;;;;;;;;;;;9.83;98.49;99597.63;4847370;29;19924;-85
2022/12/24 04:16:45;;;;;;;;;;;;;;;9.89;98.41;99593.56;4852580;29;19930;-84
2022/12/24 04:19:11;;;;;;;;;;;;;;;9.84;97.99;99601.09;4824749;29;19956;-84
2022/12/24 04:21:38;;;;;;;;;;;;;;;9.77;98.69;99601.66;4825097;29;19930;-84
2022/12/24 04:24:05;;;;;;;;;;;;;;;9.74;98.56;99607.25;4848408;29;19924;-84
2022/12/24 04:26:31;;;;;;;;;;;;;;;9.82;98.51;99618.94;4840237;29;19966;-84
2022/12/24 04:28:58;;;;;;;;;;;;;;;9.76;98.10;99618.53;4884374;29;19983;-85
2022/12/24 04:31:24;;;;;;;;;;;;;;;9.79;98.10;99606.81;4885722;29;19951;-85
2022/12/24 04:33:52;;;;;;;;;;;;;;;9.80;98.12;99626.22;4906675;29;19962;-85
2022/12/24 04:36:18;;;;;;;;;;;;;;;9.77;98.54;99635.28;4891181;29;20448;-84
2022/12/24 04:38:46;;;;;;;;;;;;;;;9.71;98.41;99628.69;4869670;29;19926;-84
2022/12/24 04:41:13;;;;;;;;;;;;;;;9.71;98.85;99631.34;4890166;29;19930;-84
2022/12/24 04:43:49;;;;;;;;;;;;;;;9.76;98.79;99638.91;4885582;29;19923;-84
2022/12/24 04:46:19;;;;;;;;;;;;;;;9.72;99.24;99643.66;4917490;28;19933;-84
2022/12/24 04:48:46;;;;;;;;;;;;;;;9.70;98.72;99632.34;4914778;29;20331;-84
2022/12/24 04:51:13;;;;;;;;;;;;;;;9.72;99.45;99630.41;4872793;29;20374;-84
2022/12/24 04:53:39;;;;;;;;;;;;;;;9.77;99.45;99636.13;4902468;29;19966;-84
2022/12/24 04:56:07;;;;;;;;;;;;;;;9.83;99.44;99639.22;4885121;29;20339;-84
2022/12/24 04:58:33;;;;;;;;;;;;;;;9.84;99.38;99631.09;4898677;29;20013;-84
2022/12/24 05:01:03;;;;;;;;;;;;;;;9.86;100.00;99620.38;4890598;29;19927;-85
2022/12/24 05:03:30;;;;;;;;;;;;;;;9.89;100.00;99622.75;4866588;29;19923;-84
2022/12/24 05:06:01;;;;;;;;;;;;;;;9.86;100.00;99628.31;4899268;29;19930;-84
2022/12/24 05:08:27;;;;;;;;;;;;;;;9.88;100.00;99618.44;4886704;29;20314;-84
2022/12/24 05:10:55;;;;;;;;;;;;;;;9.90;100.00;99621.78;4886454;29;19937;-84
2022/12/24 05:13:22;;;;;;;;;;;;;;;9.90;100.00;99622.63;4911159;29;19926;-84
2022/12/24 05:15:48;;;;;;;;;;;;;;;9.89;100.00;99612.97;4882975;29;20038;-85
2022/12/24 05:18:15;;;;;;;;;;;;;;;9.84;100.00;99617.00;4900950;29;19927;-84
2022/12/24 05:20:41;;;;;;;;;;;;;;;9.83;100.00;99613.53;4886148;29;19927;-84
2022/12/24 05:28:39;;;;;;;;;;;;;;;9.95;100.00;99625.69;4869146;29;19939;-84
2022/12/24 05:31:06;;;;;;;;;;;;;;;9.95;100.00;99623.03;4870368;29;20386;-84
2022/12/24 05:33:32;;;;;;;;;;;;;;;9.97;100.00;99623.75;4871988;29;19930;-85
2022/12/24 05:35:59;;;;;;;;;;;;;;;9.94;100.00;99625.81;4876062;29;19927;-84
2022/12/24 05:38:26;;;;;;;;;;;;;;;9.98;100.00;99627.25;4918938;28;19966;-84
2022/12/24 05:40:52;;;;;;;;;;;;;;;10.07;100.00;99634.34;4905844;29;19927;-84
2022/12/24 05:43:19;;;;;;;;;;;;;;;10.05;100.00;99644.28;4875150;29;19923;-85
2022/12/24 05:45:45;;;;;;;;;;;;;;;10.07;100.00;99644.97;4903698;29;20244;-85
2022/12/24 05:48:12;;;;;;;;;;;;;;;10.04;100.00;99645.25;4889551;29;20280;-84
2022/12/24 05:50:39;;;;;;;;;;;;;;;10.09;100.00;99644.84;4892906;29;20375;-84
2022/12/24 05:53:06;;;;;;;;;;;;;;;10.08;100.00;99659.09;4894351;29;19931;-85
2022/12/24 05:55:32;;;;;;;;;;;;;;;10.12;100.00;99658.66;4887721;29;19935;-84
2022/12/24 05:57:59;;;;;;;;;;;;;;;10.08;100.00;99667.88;4859490;29;20061;-84
2022/12/24 06:00:26;;;;;;;;;;;;;;;10.10;100.00;99651.81;4902931;29;19971;-84
2022/12/24 06:02:52;;;;;;;;;;;;;;;10.02;100.00;99665.75;4868514;29;20595;-84
2022/12/24 06:05:19;;;;;;;;;;;;;;;10.05;100.00;99675.25;4907420;29;22305;-85
2022/12/24 06:07:45;;;;;;;;;;;;;;;10.09;100.00;99677.50;4895178;29;20379;-84
2022/12/24 06:10:12;;;;;;;;;;;;;;;10.06;100.00;99675.13;4884329;29;20276;-84
2022/12/24 06:12:38;;;;;;;;;;;;;;;10.04;100.00;99677.09;4902891;29;20359;-84
2022/12/24 06:15:05;;;;;;;;;;;;;;;10.01;100.00;99677.38;4889998;29;19974;-85
2022/12/24 06:17:32;;;;;;;;;;;;;;;9.93;100.00;99677.22;4884858;29;19931;-84
2022/12/24 06:19:59;;;;;;;;;;;;;;;9.91;100.00;99677.31;4888544;29;19927;-85
2022/12/24 06:22:25;;;;;;;;;;;;;;;9.88;100.00;99669.66;4903798;29;19955;-85
2022/12/24 06:24:52;;;;;;;;;;;;;;;9.85;100.00;99675.22;4888989;29;20025;-84
2022/12/24 06:27:18;;;;;;;;;;;;;;;9.83;100.00;99684.28;4872866;29;19926;-84
2022/12/24 06:29:45;;;;;;;;;;;;;;;9.79;100.00;99683.72;4917712;29;19949;-84
2022/12/24 06:32:11;;;;;;;;;;;;;;;9.80;100.00;99696.00;4890235;29;19978;-84
2022/12/24 06:34:38;;;;;;;;;;;;;;;9.85;100.00;99691.13;4887869;29;20014;-84
2022/12/24 06:37:04;;;;;;;;;;;;;;;9.86;100.00;99699.94;4905928;29;19930;-84
2022/12/24 06:39:31;;;;;;;;;;;;;;;9.91;100.00;99700.38;4887435;29;20013;-84
2022/12/24 06:41:58;;;;;;;;;;;;;;;9.88;100.00;99703.28;4869559;29;19927;-84
2022/12/24 06:44:25;;;;;;;;;;;;;;;9.90;100.00;99709.31;4875529;29;19929;-84
2022/12/24 06:46:51;;;;;;;;;;;;;;;10.00;100.00;99705.72;4903632;29;19966;-84
2022/12/24 06:49:18;;;;;;;;;;;;;;;10.02;100.00;99700.25;4871005;29;19922;-84
2022/12/24 06:51:45;;;;;;;;;;;;;;;10.02;100.00;99712.69;4902519;29;19937;-83
2022/12/24 06:54:11;;;;;;;;;;;;;;;9.94;100.00;99705.41;4886702;29;19931;-85
2022/12/24 06:56:38;;;;;;;;;;;;;;;9.98;100.00;99718.25;4889140;29;19978;-84
2022/12/24 06:59:04;;;;;;;;;;;;;;;10.03;99.77;99719.69;4904060;29;19954;-84
2022/12/24 07:01:31;;;;;;;;;;;;;;;10.01;100.00;99722.47;4887782;29;20041;-84
2022/12/24 07:03:58;;;;;;;;;;;;;;;10.07;99.87;99726.38;4916244;29;19938;-84
2022/12/24 07:06:25;;;;;;;;;;;;;;;10.03;99.69;99725.00;4874068;29;19937;-84
2022/12/24 07:08:52;;;;;;;;;;;;;;;9.97;99.98;99726.34;4884705;29;19931;-84
2022/12/24 07:11:19;;;;;;;;;;;;;;;10.01;99.66;99735.72;4888821;29;19935;-84
2022/12/24 07:13:45;;;;;;;;;;;;;;;10.05;99.88;99741.59;4891440;29;19954;-85
2022/12/24 07:16:12;;;;;;;;;;;;;;;9.96;99.95;99749.38;4901651;29;19930;-84
2022/12/24 07:18:38;;;;;;;;;;;;;;;9.92;99.65;99763.91;4871862;29;19923;-84
2022/12/24 07:21:06;;;;;;;;;;;;;;;9.95;99.40;99758.31;4873080;29;19923;-84
2022/12/24 07:23:33;;;;;;;;;;;;;;;10.01;99.63;99767.56;4917979;29;19995;-84
2022/12/24 07:26:03;;;;;;;;;;;;;;;10.08;99.58;99763.41;4888546;29;20294;-83
2022/12/24 07:28:30;;;;;;;;;;;;;;;10.14;99.14;99765.50;4885127;29;20004;-84
2022/12/24 07:30:56;;;;;;;;;;;;;;;10.19;99.38;99765.94;4888112;29;19928;-84
2022/12/24 07:33:23;;;;;;;;;;;;;;;10.20;99.25;99764.97;4901466;29;20583;-84
2022/12/24 07:36:03;;;;;;;;;;;;;;;10.14;99.58;99770.81;4888548;29;20390;-84
2022/12/24 07:38:30;;;;;;;;;;;;;;;10.17;99.61;99775.00;4870256;29;19931;-83
2022/12/24 07:40:57;;;;;;;;;;;;;;;10.16;100.00;99779.47;4869183;29;19930;-84
2022/12/24 07:43:24;;;;;;;;;;;;;;;10.18;99.75;99779.34;4874349;29;19923;-84
2022/12/24 07:45:53;;;;;;;;;;;;;;;10.14;100.00;99778.78;4887212;29;19923;-84
2022/12/24 07:48:19;;;;;;;;;;;;;;;10.14;100.00;99785.88;4869231;29;19934;-84
2022/12/24 07:50:47;;;;;;;;;;;;;;;10.12;100.00;99782.53;4906042;29;20375;-85
2022/12/24 07:53:14;;;;;;;;;;;;;;;10.10;100.00;99785.34;4901027;29;19938;-85
2022/12/24 07:55:40;;;;;;;;;;;;;;;10.14;100.00;99784.06;4903171;29;19930;-86
2022/12/24 07:58:07;;;;;;;;;;;;;;;10.11;100.00;99791.47;4899703;29;19931;-85
2022/12/24 08:00:33;;;;;;;;;;;;;;;10.10;100.00;99795.09;4890288;29;19927;-85
2022/12/24 08:03:00;;;;;;;;;;;;;;;10.10;100.00;99788.00;4902718;29;19927;-86
2022/12/24 08:05:27;;;;;;;;;;;;;;;10.10;100.00;99792.44;4918619;28;19923;-86
2022/12/24 08:07:53;;;;;;;;;;;;;;;10.09;100.00;99804.84;4886866;29;19929;-85
2022/12/24 08:10:20;;;;;;;;;;;;;;;10.06;100.00;99799.81;4905591;29;19923;-86
2022/12/24 08:12:47;;;;;;;;;;;;;;;10.00;100.00;99797.72;4889466;29;20423;-86
2022/12/24 08:15:13;;;;;;;;;;;;;;;9.98;100.00;99807.63;4918600;29;19933;-86
2022/12/24 08:17:40;;;;;;;;;;;;;;;9.99;100.00;99815.41;4870402;29;19954;-86
2022/12/24 08:20:07;;;;;;;;;;;;;;;10.04;100.00;99811.53;4922456;28;19929;-85
2022/12/24 08:22:34;;;;;;;;;;;;;;;10.07;100.00;99813.94;4903090;29;19923;-86
2022/12/24 08:25:00;;;;;;;;;;;;;;;10.05;100.00;99829.13;4886175;29;19930;-85
2022/12/24 08:27:27;;;;;;;;;;;;;;;10.04;100.00;99830.94;4890463;29;19923;-85
2022/12/24 08:29:53;;;;;;;;;;;;;;;10.03;100.00;99833.75;4871349;29;19931;-86
2022/12/24 08:32:20;;;;;;;;;;;;;;;10.05;100.00;99839.75;4899281;29;19938;-85
2022/12/24 08:34:46;;;;;;;;;;;;;;;10.02;100.00;99840.00;4874412;29;20287;-86
2022/12/24 08:37:13;;;;;;;;;;;;;;;10.08;100.00;99844.81;4888828;29;19927;-86
2022/12/24 08:39:39;;;;;;;;;;;;;;;10.11;100.00;99837.41;4887392;29;19930;-85
2022/12/24 08:42:06;;;;;;;;;;;;;;;10.15;99.85;99841.50;4871991;29;20378;-86
2022/12/24 08:44:33;;;;;;;;;;;;;;;10.19;99.95;99845.53;4872227;29;19959;-86
2022/12/24 08:46:59;;;;;;;;;;;;;;;10.20;100.00;99833.97;4888485;29;19923;-85
2022/12/24 08:49:26;;;;;;;;;;;;;;;10.22;100.00;99832.00;4900681;29;19927;-86
2022/12/24 08:51:52;;;;;;;;;;;;;;;10.27;100.00;99825.47;4871260;29;19923;-85
2022/12/24 08:54:19;;;;;;;;;;;;;;;10.33;99.86;99832.91;4902031;29;20336;-85
2022/12/24 08:56:45;;;;;;;;;;;;;;;10.37;99.60;99835.16;4902016;29;19931;-86
2022/12/24 08:59:12;;;;;;;;;;;;;;;10.40;99.19;99837.53;4899236;29;19935;-86
2022/12/24 09:01:38;;;;;;;;;;;;;;;10.46;98.96;99845.94;4850199;28;19927;-86
2022/12/24 09:04:08;;;;;;;;;;;;;;;10.49;99.22;99840.38;4856338;29;19932;-86
2022/12/24 09:06:35;;;;;;;;;;;;;;;10.49;98.75;99846.53;4850575;29;19930;-87
2022/12/24 09:09:02;;;;;;;;;;;;;;;10.52;98.73;99853.38;4831751;29;19923;-86
2022/12/24 09:11:28;;;;;;;;;;;;;;;10.52;98.80;99862.19;4878515;29;19932;-86
2022/12/24 09:13:55;;;;;;;;;;;;;;;10.54;98.61;99862.06;4879474;29;20384;-85
2022/12/24 09:16:22;;;;;;;;;;;;;;;10.55;98.64;99869.88;4861512;29;19998;-85
2022/12/24 09:18:48;;;;;;;;;;;;;;;10.57;98.80;99869.75;4846014;29;19930;-85
2022/12/24 09:21:16;;;;;;;;;;;;;;;10.58;98.67;99864.31;4845779;29;20411;-85
2022/12/24 09:23:43;;;;;;;;;;;;;;;10.60;98.40;99864.16;4877430;29;20435;-84
2022/12/24 09:26:15;;;;;;;;;;;;;;;10.61;98.63;99877.31;4846554;29;19932;-85
2022/12/24 09:28:41;;;;;;;;;;;;;;;10.63;98.81;99874.50;4832122;29;19923;-84
2022/12/24 09:31:08;;;;;;;;;;;;;;;10.64;99.04;99877.03;4834079;29;19924;-86
2022/12/24 09:33:36;;;;;;;;;;;;;;;10.65;98.34;99893.81;4817653;29;19924;-85
2022/12/24 09:36:02;;;;;;;;;;;;;;;10.67;98.25;99893.69;4854580;29;19927;-85
2022/12/24 09:38:29;;;;;;;;;;;;;;;10.69;98.28;99897.06;4873749;29;20339;-85
2022/12/24 09:40:56;;;;;;;;;;;;;;;10.70;98.55;99893.41;4885809;29;19924;-85
2022/12/24 09:43:30;;;;;;;;;;;;;;;10.70;98.25;99893.41;4883376;29;19931;-86
2022/12/24 09:46:16;;;;;;;;;;;;;;;10.72;98.36;99899.44;4890407;29;21397;-88
2022/12/24 09:48:44;;;;;;;;;;;;;;;10.73;98.20;99904.59;4883852;29;21586;-86
2022/12/24 09:51:11;;;;;;;;;;;;;;;10.74;98.37;99894.84;4870565;29;19923;-86
2022/12/24 09:53:51;;;;;;;;;;;;;;;10.74;98.21;99906.28;4906246;29;19962;-86
2022/12/24 09:56:19;;;;;;;;;;;;;;;10.76;98.21;99907.00;4909249;28;19930;-86
2022/12/24 09:59:01;;;;;;;;;;;;;;;10.79;98.55;99917.34;4867782;29;19959;-86
2022/12/24 10:01:29;;;;;;;;;;;;;;;10.81;98.73;99912.75;4869718;29;20606;-84
2022/12/24 10:03:57;;;;;;;;;;;;;;;10.84;97.12;99914.31;4893490;29;20050;-88
2022/12/24 10:06:24;;;;;;;;;;;;;;;10.87;97.29;99908.72;4903294;29;19923;-87
2022/12/24 10:08:55;;;;;;;;;;;;;;;10.91;97.29;99911.91;4899837;29;19926;-88
2022/12/24 10:11:23;;;;;;;;;;;;;;;10.94;97.73;99909.84;4902320;29;19953;-88
2022/12/24 10:13:50;;;;;;;;;;;;;;;11.00;97.58;99906.63;4887250;29;20374;-88
2022/12/24 10:16:32;;;;;;;;;;;;;;;11.03;97.62;99903.69;4890318;29;19970;-88
2022/12/24 10:19:01;;;;;;;;;;;;;;;11.05;97.13;99912.38;4901888;29;20446;-88
2022/12/24 10:21:34;;;;;;;;;;;;;;;11.06;97.24;99900.75;4876522;29;20397;-89
2022/12/24 10:24:19;;;;;;;;;;;;;;;11.10;97.25;99911.13;4903404;29;19933;-89
2022/12/24 10:26:49;;;;;;;;;;;;;;;11.10;96.80;99906.66;4868541;29;19927;-88
2022/12/24 10:29:17;;;;;;;;;;;;;;;11.10;96.64;99911.13;4871082;29;19938;-87
2022/12/24 10:31:56;;;;;;;;;;;;;;;11.12;96.88;99917.13;4904402;29;19927;-88
2022/12/24 10:34:23;;;;;;;;;;;;;;;11.12;96.87;99922.44;4875388;29;20276;-88
2022/12/24 10:36:49;;;;;;;;;;;;;;;11.10;95.81;99932.41;4908485;29;21145;-87
2022/12/24 10:39:17;;;;;;;;;;;;;;;11.12;96.18;99933.06;4872941;29;21036;-87
2022/12/24 10:41:45;;;;;;;;;;;;;;;11.12;96.04;99935.75;4907402;29;19974;-88
2022/12/24 10:44:14;;;;;;;;;;;;;;;11.14;96.27;99929.31;4885413;28;19931;-87
2022/12/24 10:46:40;;;;;;;;;;;;;;;11.13;96.25;99932.94;4890614;29;19923;-86
2022/12/24 10:49:11;;;;;;;;;;;;;;;11.13;95.67;99937.44;4872885;29;20508;-85
2022/12/24 10:51:56;;;;;;;;;;;;;;;11.15;95.83;99938.16;4890130;29;20343;-85
2022/12/24 10:54:24;;;;;;;;;;;;;;;11.15;96.16;99935.50;4873236;29;19934;-85
2022/12/24 10:56:59;;;;;;;;;;;;;;;11.16;96.74;99934.50;4907350;29;19978;-84
2022/12/24 10:59:38;;;;;;;;;;;;;;;11.15;96.19;99931.00;4887473;29;19950;-85
2022/12/24 11:02:23;;;;;;;;;;;;;;;11.15;95.78;99924.84;4872339;29;19986;-86
2022/12/24 11:04:50;;;;;;;;;;;;;;;11.16;96.41;99931.84;4893301;29;19927;-86
2022/12/24 11:07:18;;;;;;;;;;;;;;;11.15;96.31;99920.38;4886978;29;19923;-86
2022/12/24 11:09:53;;;;;;;;;;;;;;;11.18;96.65;99930.72;4900420;29;19942;-85
2022/12/24 11:12:23;;;;;;;;;;;;;;;11.17;96.43;99931.72;4841320;29;20295;-87
2022/12/24 11:15:08;;;;;;;;;;;;;;;11.19;96.31;99936.88;4889293;29;21076;-85
2022/12/24 11:17:35;;;;;;;;;;;;;;;11.09;94.74;99931.53;4857464;29;19923;-86
2022/12/24 11:20:02;;;;;;;;;;;;;;;11.13;95.04;99946.25;4915982;29;20366;-86
2022/12/24 11:22:30;;;;;;;;;;;;;;;11.11;94.39;99934.91;4903716;29;20015;-85
2022/12/24 11:24:57;;;;;;;;;;;;;;;11.13;95.61;99934.78;4887319;29;20438;-86
2022/12/24 11:27:27;;;;;;;;;;;;;;;11.09;94.73;99928.88;4886697;29;19927;-85
2022/12/24 11:30:12;;;;;;;;;;;;;;;11.10;95.53;99921.78;4899706;29;20357;-85
2022/12/24 11:32:39;;;;;;;;;;;;;;;11.13;95.26;99932.13;4903905;28;19931;-85
2022/12/24 11:35:06;;;;;;;;;;;;;;;11.14;95.19;99931.97;4891165;29;20439;-85
2022/12/24 11:37:33;;;;;;;;;;;;;;;11.19;95.47;99934.22;4900992;29;19930;-85
2022/12/24 11:40:00;;;;;;;;;;;;;;;11.22;95.36;99945.44;4916542;28;20382;-84
2022/12/24 11:42:37;;;;;;;;;;;;;;;11.26;95.43;99932.69;4886868;29;19981;-84
2022/12/24 11:45:13;;;;;;;;;;;;;;;11.28;94.34;99936.91;4886112;29;20015;-84
2022/12/24 11:47:40;;;;;;;;;;;;;;;11.30;95.18;99934.94;4886863;29;20533;-84
2022/12/24 11:50:18;;;;;;;;;;;;;;;11.29;94.47;99937.72;4918929;28;19923;-85
2022/12/24 11:52:46;;;;;;;;;;;;;;;11.29;94.53;99943.03;4871401;29;19932;-83
2022/12/24 11:55:13;;;;;;;;;;;;;;;11.29;95.07;99945.72;4887952;29;19938;-84
2022/12/24 11:57:51;;;;;;;;;;;;;;;11.29;94.91;99927.09;4900549;29;19931;-84
2022/12/24 12:00:17;;;;;;;;;;;;;;;11.27;95.20;99927.25;4885371;29;19924;-84
2022/12/24 12:02:45;;;;;;;;;;;;;;;11.27;95.43;99931.69;4890059;29;19927;-85
2022/12/24 12:05:16;;;;;;;;;;;;;;;11.27;95.66;99923.72;4901604;29;20076;-84
2022/12/24 12:07:43;;;;;;;;;;;;;;;11.26;95.80;99919.41;4884547;29;20369;-84
2022/12/24 12:10:14;;;;;;;;;;;;;;;11.24;95.97;99919.53;4884522;29;20335;-86
2022/12/24 12:12:41;;;;;;;;;;;;;;;11.22;95.74;99918.00;4918438;28;19923;-86
2022/12/24 12:15:08;;;;;;;;;;;;;;;11.21;95.93;99909.19;4884525;29;19982;-84
2022/12/24 12:17:36;;;;;;;;;;;;;;;11.20;95.75;99915.50;4902210;29;19923;-84
2022/12/24 12:20:22;;;;;;;;;;;;;;;11.20;95.96;99918.16;4886503;29;19930;-85
2022/12/24 12:22:52;;;;;;;;;;;;;;;11.18;95.68;99919.25;4858599;29;19927;-84
2022/12/24 12:25:26;;;;;;;;;;;;;;;11.18;95.91;99930.72;4887858;29;20037;-84
2022/12/24 12:27:54;;;;;;;;;;;;;;;11.17;95.56;99926.41;4913406;29;20022;-85
2022/12/24 12:30:21;;;;;;;;;;;;;;;11.17;95.44;99930.84;4916671;28;19931;-85
2022/12/24 12:33:00;;;;;;;;;;;;;;;11.15;95.42;99936.31;4885595;29;19931;-85
2022/12/24 12:35:29;;;;;;;;;;;;;;;11.17;95.57;99938.81;4897747;29;19962;-84
2022/12/24 12:37:57;;;;;;;;;;;;;;;11.14;95.45;99936.44;4884775;29;19931;-84
2022/12/24 12:40:31;;;;;;;;;;;;;;;11.14;95.77;99939.94;4885606;29;20064;-85
2022/12/24 12:43:09;;;;;;;;;;;;;;;11.14;95.92;99937.28;4857705;29;19923;-85
2022/12/24 12:45:42;;;;;;;;;;;;;;;11.15;95.97;99946.13;4861700;29;19927;-85
2022/12/24 12:48:27;;;;;;;;;;;;;;;11.14;96.08;99936.44;4899188;29;19970;-84
2022/12/24 12:50:57;;;;;;;;;;;;;;;11.15;95.36;99941.63;4857015;29;19923;-84
2022/12/24 12:53:26;;;;;;;;;;;;;;;11.12;95.20;99946.38;4918388;28;19931;-84
2022/12/24 12:56:02;;;;;;;;;;;;;;;11.12;95.65;99944.56;4904994;29;19974;-84
2022/12/24 12:58:30;;;;;;;;;;;;;;;11.11;96.11;99948.19;4899461;29;19927;-85
2022/12/24 13:00:59;;;;;;;;;;;;;;;11.12;96.37;99944.56;4893576;29;20049;-85
2022/12/24 13:03:44;;;;;;;;;;;;;;;11.14;96.76;99937.28;4906944;28;20665;-85